Time;durP1;ratioP1;P1;durP2;ratioP2;P2;SDS_P1;SDS_P2;PMS_P1;PMS_P2;Temp;Humidity;BMP_temperature;BMP_pressure;BME280_temperature;BME280_humidity;BME280_pressure;Samples;Min_cycle;Max_cycle;Signal;HPM_P1;HPM_P2
2024/03/21 00:01:40;;;;;;;24.60;21.95;;;;;;;11.17;100.00;101947.66;5089755;28;20529;-40
2024/03/21 00:04:05;;;;;;;26.40;22.37;;;;;;;11.20;100.00;101949.13;5090121;28;20039;-39
2024/03/21 00:06:30;;;;;;;25.25;22.63;;;;;;;11.28;100.00;101946.22;5078678;28;20025;-39
2024/03/21 00:08:56;;;;;;;25.55;22.60;;;;;;;11.39;100.00;101964.53;5076199;28;20086;-39
2024/03/21 00:11:21;;;;;;;25.60;22.33;;;;;;;11.40;100.00;101962.66;5076091;28;20029;-39
2024/03/21 00:13:47;;;;;;;26.40;23.25;;;;;;;11.37;100.00;101966.63;5076012;28;20275;-39
2024/03/21 00:16:12;;;;;;;26.67;23.90;;;;;;;11.39;100.00;101977.25;5075699;28;20082;-39
2024/03/21 00:18:38;;;;;;;26.20;23.40;;;;;;;11.45;100.00;101976.41;5075777;28;20032;-39
2024/03/21 00:21:04;;;;;;;28.95;23.27;;;;;;;11.44;100.00;101975.56;5075909;28;20349;-39
2024/03/21 00:23:30;;;;;;;25.88;23.20;;;;;;;11.45;100.00;101971.81;5076143;28;20031;-39
2024/03/21 00:26:03;;;;;;;25.75;23.10;;;;;;;11.40;100.00;101968.06;5075796;28;20092;-39
2024/03/21 00:28:28;;;;;;;26.38;23.13;;;;;;;11.44;100.00;101970.16;5076136;28;20032;-39
2024/03/21 00:30:56;;;;;;;26.77;23.75;;;;;;;11.50;100.00;101985.56;5076013;28;20385;-40
2024/03/21 00:33:22;;;;;;;27.33;24.50;;;;;;;11.41;100.00;101986.81;5075830;28;20028;-39
2024/03/21 00:35:47;;;;;;;26.38;23.58;;;;;;;11.45;100.00;101988.06;5076259;28;20028;-39
2024/03/21 00:38:12;;;;;;;26.27;23.43;;;;;;;11.45;100.00;101985.38;5075622;28;20032;-39
2024/03/21 00:40:38;;;;;;;25.60;22.73;;;;;;;11.43;100.00;101971.22;5075582;28;20020;-39
2024/03/21 00:43:04;;;;;;;25.20;22.53;;;;;;;11.40;100.00;101974.31;5075514;28;20281;-39
2024/03/21 00:45:30;;;;;;;25.73;22.33;;;;;;;11.45;100.00;101977.25;5076047;28;20255;-39
2024/03/21 00:47:56;;;;;;;;;;;;;;;11.55;100.00;101982.22;5076389;28;20038;-38
2024/03/21 00:50:22;;;;;;;24.83;21.67;;;;;;;11.44;100.00;101986.41;5075382;28;19988;-39
2024/03/21 00:52:47;;;;;;;24.63;22.05;;;;;;;11.37;100.00;101968.47;5075129;28;20029;-40
2024/03/21 00:55:12;;;;;;;23.43;20.93;;;;;;;11.42;100.00;101993.94;5075959;28;20080;-39
2024/03/21 00:57:38;;;;;;;24.60;21.55;;;;;;;11.41;100.00;101994.94;5075229;28;20110;-39
2024/03/21 01:00:04;;;;;;;26.35;23.15;;;;;;;11.43;100.00;102001.00;5075249;28;20039;-39
2024/03/21 01:02:29;;;;;;;;;;;;;;;11.52;100.00;101998.94;5075464;28;20460;-39
2024/03/21 01:04:55;;;;;;;26.63;22.55;;;;;;;11.42;100.00;101998.47;5075409;28;19999;-39
2024/03/21 01:07:21;;;;;;;29.10;23.33;;;;;;;11.41;100.00;102003.06;5075227;28;20056;-39
2024/03/21 01:09:47;;;;;;;28.38;23.50;;;;;;;11.33;100.00;101995.16;5075274;28;20035;-39
2024/03/21 01:12:12;;;;;;;28.38;24.70;;;;;;;11.34;100.00;101996.84;5074938;28;20033;-39
2024/03/21 01:14:38;;;;;;;28.30;22.33;;;;;;;11.20;100.00;101978.91;5075158;28;20036;-40
2024/03/21 01:17:03;;;;;;;29.52;24.17;;;;;;;11.29;100.00;102005.56;5073631;28;20028;-40
2024/03/21 01:19:29;;;;;;;26.38;23.52;;;;;;;11.21;100.00;101991.41;5074732;28;20028;-39
2024/03/21 01:21:54;;;;;;;26.20;22.25;;;;;;;11.28;100.00;101997.66;5074747;28;20017;-39
2024/03/21 01:24:19;;;;;;;24.77;22.03;;;;;;;11.28;100.00;102003.09;5075033;28;20111;-39
2024/03/21 01:26:45;;;;;;;24.27;21.37;;;;;;;11.24;100.00;101999.94;5074381;28;20028;-39
2024/03/21 01:29:10;;;;;;;27.07;23.17;;;;;;;11.27;100.00;101998.69;5074404;28;20251;-39
2024/03/21 01:31:36;;;;;;;24.88;22.05;;;;;;;11.19;100.00;101994.31;5074501;28;20111;-39
2024/03/21 01:34:01;;;;;;;26.60;22.23;;;;;;;11.10;100.00;101990.16;5074447;28;20027;-39
2024/03/21 01:36:27;;;;;;;25.20;22.50;;;;;;;11.20;100.00;102005.97;5074215;28;20066;-39
2024/03/21 01:38:53;;;;;;;;;;;;;;;11.29;100.00;102010.16;5074859;28;20266;-39
2024/03/21 01:41:19;;;;;;;23.75;21.25;;;;;;;11.12;100.00;101992.63;5074038;28;19908;-39
2024/03/21 01:43:44;;;;;;;25.85;21.98;;;;;;;11.15;100.00;101998.47;5074344;28;20029;-39
2024/03/21 01:46:19;;;;;;;24.35;21.10;;;;;;;11.17;100.00;101995.56;5074236;28;20086;-39
2024/03/21 01:48:47;;;;;;;24.50;21.58;;;;;;;11.15;100.00;102000.34;5074255;28;20079;-39
2024/03/21 01:51:14;;;;;;;23.48;21.00;;;;;;;11.16;100.00;101999.31;5074429;28;20107;-39
2024/03/21 01:53:44;;;;;;;24.17;21.17;;;;;;;11.18;100.00;101991.84;5073612;28;20036;-40
2024/03/21 01:56:09;;;;;;;22.67;20.33;;;;;;;11.09;100.00;101975.78;5074709;28;20416;-39
2024/03/21 01:58:35;;;;;;;23.98;21.23;;;;;;;11.15;100.00;101992.22;5074159;28;20090;-39
2024/03/21 02:01:18;;;;;;;22.52;20.13;;;;;;;11.18;100.00;101991.84;5074539;28;20436;-39
2024/03/21 02:03:44;;;;;;;23.17;20.73;;;;;;;11.14;100.00;102004.94;5073931;28;20044;-39
2024/03/21 02:06:09;;;;;;;23.10;20.63;;;;;;;11.11;100.00;101996.38;5073913;28;20024;-39
2024/03/21 02:08:34;;;;;;;21.70;19.40;;;;;;;11.03;100.00;101987.44;5074191;28;20104;-39
2024/03/21 02:11:00;;;;;;;24.20;21.27;;;;;;;10.99;100.00;101983.47;5074381;28;20784;-39
2024/03/21 02:13:25;;;;;;;23.77;20.70;;;;;;;10.95;100.00;101978.69;5073801;28;20457;-39
2024/03/21 02:15:50;;;;;;;24.97;20.60;;;;;;;10.91;100.00;101980.13;5074018;28;20370;-39
2024/03/21 02:18:16;;;;;;;25.33;20.67;;;;;;;10.92;100.00;101981.78;5074205;28;20263;-39
2024/03/21 02:20:42;;;;;;;23.65;20.08;;;;;;;10.91;100.00;101980.13;5073789;28;20035;-39
2024/03/21 02:23:10;;;;;;;23.73;21.20;;;;;;;10.86;100.00;101993.44;5074212;28;20095;-39
2024/03/21 02:25:36;;;;;;;25.90;20.83;;;;;;;10.83;100.00;102006.34;5073921;28;20041;-39
2024/03/21 02:28:01;;;;;;;23.15;19.80;;;;;;;10.78;100.00;101989.03;5073438;28;20517;-39
2024/03/21 02:30:27;;;;;;;21.88;19.48;;;;;;;10.79;100.00;102015.06;5074086;28;20032;-39
2024/03/21 02:32:52;;;;;;;21.20;19.03;;;;;;;10.77;100.00;101990.91;5073816;28;20025;-40
2024/03/21 02:35:17;;;;;;;22.13;19.73;;;;;;;10.76;100.00;102004.66;5073737;28;20318;-40
2024/03/21 02:37:43;;;;;;;22.15;19.08;;;;;;;10.70;100.00;101986.53;5073491;28;20028;-40
2024/03/21 02:40:09;;;;;;;22.47;20.07;;;;;;;10.71;100.00;102013.38;5073773;28;20032;-40
2024/03/21 02:42:34;;;;;;;21.33;18.42;;;;;;;10.70;100.00;102016.28;5073131;28;20048;-40
2024/03/21 02:45:00;;;;;;;21.50;18.23;;;;;;;10.71;100.00;102012.53;5073485;28;20494;-40
2024/03/21 02:47:25;;;;;;;19.40;17.45;;;;;;;10.67;100.00;102013.97;5073924;28;20024;-40
2024/03/21 02:49:52;;;;;;;20.53;18.40;;;;;;;10.58;100.00;101992.50;5073466;28;20028;-40
2024/03/21 02:52:18;;;;;;;19.08;17.08;;;;;;;10.64;100.00;102014.38;5073318;28;20267;-40
2024/03/21 02:54:43;;;;;;;18.83;16.85;;;;;;;10.62;100.00;102020.00;5073562;28;20511;-40
2024/03/21 02:57:10;;;;;;;18.10;16.17;;;;;;;10.53;100.00;102005.81;5073100;28;20032;-40
2024/03/21 02:59:35;;;;;;;18.60;16.33;;;;;;;10.54;100.00;102028.28;5073920;28;20025;-40
2024/03/21 03:02:03;;;;;;;19.23;16.58;;;;;;;10.52;100.00;102033.91;5073974;28;20028;-40
2024/03/21 03:04:29;;;;;;;17.95;15.57;;;;;;;10.43;100.00;102035.09;5073234;28;20469;-40
2024/03/21 03:06:55;;;;;;;;;;;;;;;10.61;100.00;102033.75;5073629;28;20024;-40
2024/03/21 03:09:20;;;;;;;16.87;14.80;;;;;;;10.50;100.00;102027.03;5073193;28;20357;-39
2024/03/21 03:11:45;;;;;;;16.03;14.17;;;;;;;10.47;100.00;102033.66;5073752;28;20688;-39
2024/03/21 03:14:11;;;;;;;14.48;12.88;;;;;;;10.38;100.00;102029.47;5073112;28;20468;-40
2024/03/21 03:16:36;;;;;;;15.67;13.97;;;;;;;10.40;100.00;102042.81;5072953;28;20055;-39
2024/03/21 03:19:02;;;;;;;14.70;13.27;;;;;;;10.37;100.00;102044.03;5072916;28;20025;-40
2024/03/21 03:21:28;;;;;;;15.00;13.43;;;;;;;10.29;100.00;102042.31;5073102;28;20321;-40
2024/03/21 03:23:53;;;;;;;14.02;12.63;;;;;;;10.19;100.00;102031.00;5073021;28;20032;-40
2024/03/21 03:26:18;;;;;;;16.37;12.90;;;;;;;10.20;100.00;102039.94;5073392;28;20032;-40
2024/03/21 03:28:44;;;;;;;15.10;12.30;;;;;;;10.25;100.00;102056.47;5073863;28;20107;-39
2024/03/21 03:31:09;;;;;;;14.67;12.47;;;;;;;10.24;100.00;102060.16;5073010;28;20032;-39
2024/03/21 03:36:18;;;;;;;16.08;12.32;;;;;;;10.19;100.00;102057.19;5073524;28;20044;-40
2024/03/21 03:38:43;;;;;;;14.65;13.15;;;;;;;10.14;100.00;102046.16;5073501;28;20384;-39
2024/03/21 03:41:09;;;;;;;14.45;12.60;;;;;;;10.05;100.00;102040.06;5075357;28;20078;-39
2024/03/21 03:43:34;;;;;;;14.80;12.43;;;;;;;10.15;100.00;102055.91;5076640;28;20032;-39
2024/03/21 03:45:59;;;;;;;16.43;13.13;;;;;;;10.11;100.00;102071.72;5076925;28;20036;-39
2024/03/21 03:48:25;;;;;;;15.17;13.63;;;;;;;10.05;100.00;102072.50;5076895;28;20026;-39
2024/03/21 03:50:50;;;;;;;17.33;13.67;;;;;;;10.06;100.00;102079.59;5076255;28;20029;-39
2024/03/21 03:53:15;;;;;;;15.47;13.87;;;;;;;10.02;100.00;102084.53;5076445;28;20316;-39
2024/03/21 03:55:41;;;;;;;15.47;13.10;;;;;;;10.06;100.00;102095.81;5076784;28;20040;-39
2024/03/21 03:58:06;;;;;;;16.17;13.63;;;;;;;9.99;100.00;102092.19;5076667;28;20267;-39
2024/03/21 04:00:31;;;;;;;16.20;14.33;;;;;;;10.05;100.00;102100.38;5076420;28;20464;-39
2024/03/21 04:02:57;;;;;;;20.27;15.47;;;;;;;10.00;100.00;102105.53;5076373;28;20380;-39
2024/03/21 04:05:24;;;;;;;17.55;15.75;;;;;;;10.02;100.00;102105.34;5075934;28;20021;-39
2024/03/21 04:07:50;;;;;;;18.77;16.88;;;;;;;9.97;100.00;102119.44;5076422;28;20036;-39
2024/03/21 04:10:15;;;;;;;19.85;16.33;;;;;;;10.00;100.00;102115.47;5077024;28;20525;-39
2024/03/21 04:12:40;;;;;;;20.60;17.37;;;;;;;9.94;100.00;102113.56;5075859;28;20021;-39
2024/03/21 04:15:07;;;;;;;19.02;17.02;;;;;;;9.90;100.00;102112.28;5076277;28;20032;-40
2024/03/21 04:17:32;;;;;;;19.05;16.77;;;;;;;9.94;100.00;102106.31;5076839;28;20052;-40
2024/03/21 04:19:58;;;;;;;22.23;18.92;;;;;;;9.95;100.00;102104.44;5076002;28;20056;-40
2024/03/21 04:22:23;;;;;;;21.07;18.97;;;;;;;9.93;100.00;102101.09;5075689;28;20032;-40
2024/03/21 04:24:49;;;;;;;22.88;19.70;;;;;;;9.93;100.00;102107.34;5076014;28;20746;-39
2024/03/21 04:27:14;;;;;;;24.33;20.43;;;;;;;9.83;100.00;102096.03;5076652;28;20033;-40
2024/03/21 04:29:39;;;;;;;23.90;20.87;;;;;;;9.89;100.00;102116.88;5075927;28;20345;-39
2024/03/21 04:32:05;;;;;;;30.23;21.33;;;;;;;9.85;100.00;102112.88;5075431;28;20048;-39
2024/03/21 04:34:30;;;;;;;26.45;22.10;;;;;;;9.89;100.00;102124.97;5075561;28;20024;-39
2024/03/21 04:36:56;;;;;;;21.33;19.03;;;;;;;9.89;100.00;102124.97;5075939;28;20021;-40
2024/03/21 04:39:21;;;;;;;23.33;20.83;;;;;;;9.88;100.00;102142.22;5075826;28;20025;-40
2024/03/21 04:41:47;;;;;;;23.33;20.70;;;;;;;9.87;100.00;102150.53;5075263;28;20029;-40
2024/03/21 04:44:12;;;;;;;24.15;21.38;;;;;;;9.83;100.00;102146.53;5075703;28;20032;-38
2024/03/21 04:46:37;;;;;;;24.23;21.63;;;;;;;9.80;100.00;102139.63;5075444;28;20036;-39
2024/03/21 04:49:03;;;;;;;25.17;22.47;;;;;;;9.82;100.00;102153.81;5075723;28;20723;-40
2024/03/21 04:51:28;;;;;;;24.50;21.67;;;;;;;9.86;100.00;102152.41;5075657;28;20485;-39
2024/03/21 04:53:53;;;;;;;26.03;21.47;;;;;;;9.79;100.00;102154.19;5075304;28;20049;-39
2024/03/21 04:56:19;;;;;;;21.93;19.63;;;;;;;9.84;100.00;102162.53;5075710;28;20424;-39
2024/03/21 04:58:44;;;;;;;20.20;18.02;;;;;;;9.82;100.00;102167.31;5075239;28;20031;-39
2024/03/21 05:01:09;;;;;;;17.87;16.00;;;;;;;9.80;100.00;102172.06;5075270;28;20052;-39
2024/03/21 05:03:36;;;;;;;18.17;16.27;;;;;;;9.75;100.00;102169.09;5075188;28;20025;-39
2024/03/21 05:06:03;;;;;;;16.90;15.20;;;;;;;9.82;100.00;102174.59;5075833;28;20028;-39
2024/03/21 05:08:28;;;;;;;16.15;14.55;;;;;;;9.79;100.00;102175.78;5075610;28;20029;-39
2024/03/21 05:10:53;;;;;;;15.77;14.17;;;;;;;9.75;100.00;102175.34;5075112;28;20028;-39
2024/03/21 05:13:19;;;;;;;14.10;12.57;;;;;;;9.72;100.00;102170.34;5075546;28;20031;-39
2024/03/21 05:15:48;;;;;;;11.80;10.60;;;;;;;9.75;100.00;102188.84;5074741;28;20461;-39
2024/03/21 05:18:13;;;;;;;11.60;10.50;;;;;;;9.79;100.00;102194.72;5075371;28;20457;-39
2024/03/21 05:20:39;;;;;;;10.93;9.83;;;;;;;9.77;100.00;102199.47;5075362;28;20043;-39
2024/03/21 05:23:04;;;;;;;11.00;9.90;;;;;;;9.74;100.00;102200.69;5074828;28;20039;-39
2024/03/21 05:25:29;;;;;;;11.13;9.87;;;;;;;9.74;100.00;102207.97;5074795;28;20028;-38
2024/03/21 05:27:55;;;;;;;10.43;9.47;;;;;;;9.72;100.00;102221.66;5074430;28;20455;-39
2024/03/21 05:30:20;;;;;;;12.03;10.83;;;;;;;9.67;100.00;102221.41;5074237;28;20491;-39
2024/03/21 05:32:45;;;;;;;14.23;12.07;;;;;;;9.66;100.00;102218.88;5074603;28;20105;-40
2024/03/21 05:35:10;;;;;;;14.10;12.60;;;;;;;9.67;100.00;102220.56;5074216;28;20060;-39
2024/03/21 05:37:36;;;;;;;14.30;12.90;;;;;;;9.56;100.00;102211.06;5074979;28;20056;-39
2024/03/21 05:40:01;;;;;;;15.63;14.13;;;;;;;9.63;100.00;102230.91;5074429;28;20101;-39
2024/03/21 05:42:27;;;;;;;17.40;15.70;;;;;;;9.53;100.00;102219.59;5074101;28;20029;-39
2024/03/21 05:44:52;;;;;;;17.27;15.63;;;;;;;9.58;100.00;102237.91;5074685;28;20032;-39
2024/03/21 05:47:22;;;;;;;16.80;15.17;;;;;;;9.54;100.00;102232.88;5075030;28;20031;-39
2024/03/21 05:49:47;;;;;;;16.65;15.05;;;;;;;9.55;100.00;102229.16;5074731;28;20032;-39
2024/03/21 05:52:12;;;;;;;16.02;14.52;;;;;;;9.61;100.00;102238.34;5074093;28;20396;-39
2024/03/21 05:54:38;;;;;;;16.77;15.10;;;;;;;9.62;100.00;102248.16;5074377;28;20468;-40
2024/03/21 05:57:03;;;;;;;17.33;15.53;;;;;;;9.64;100.00;102253.34;5073761;28;20102;-40
2024/03/21 05:59:29;;;;;;;17.80;15.93;;;;;;;9.64;100.00;102254.19;5073957;28;20028;-40
2024/03/21 06:01:54;;;;;;;16.17;14.67;;;;;;;9.61;100.00;102257.25;5074266;28;20028;-39
2024/03/21 06:04:21;;;;;;;16.47;14.83;;;;;;;9.60;100.00;102260.16;5072010;28;20028;-40
2024/03/21 06:06:46;;;;;;;16.45;14.88;;;;;;;9.62;100.00;102268.91;5073877;28;20385;-40
2024/03/21 06:09:12;;;;;;;16.60;14.88;;;;;;;9.63;100.00;102266.03;5074474;28;20060;-39
2024/03/21 06:11:37;;;;;;;15.48;14.02;;;;;;;9.53;100.00;102263.63;5074634;28;20365;-39
2024/03/21 06:14:03;;;;;;;12.77;11.48;;;;;;;9.61;100.00;102267.22;5074321;28;20064;-39
2024/03/21 06:16:29;;;;;;;11.15;10.15;;;;;;;9.54;100.00;102262.59;5073692;28;20032;-39
2024/03/21 06:18:55;;;;;;;10.77;9.88;;;;;;;9.52;100.00;102278.16;5073423;28;20025;-39
2024/03/21 06:21:20;;;;;;;10.23;9.27;;;;;;;9.49;100.00;102272.28;5074466;28;20028;-38
2024/03/21 06:23:45;;;;;;;9.57;8.57;;;;;;;9.47;100.00;102267.09;5074006;28;20033;-39
2024/03/21 06:26:10;;;;;;;9.40;8.50;;;;;;;9.48;100.00;102287.66;5073564;28;20051;-39
2024/03/21 06:28:36;;;;;;;9.50;8.50;;;;;;;9.49;100.00;102293.88;5073418;28;20472;-39
2024/03/21 06:31:01;;;;;;;7.03;6.32;;;;;;;9.52;100.00;102293.53;5073239;28;20028;-39
2024/03/21 06:33:27;;;;;;;9.10;6.80;;;;;;;9.44;100.00;102299.84;5073377;28;20021;-39
2024/03/21 06:35:52;;;;;;;7.60;6.90;;;;;;;9.48;100.00;102306.56;5073414;28;20271;-39
2024/03/21 06:38:17;;;;;;;7.35;6.60;;;;;;;9.49;100.00;102313.63;5073982;28;20024;-39
2024/03/21 06:40:43;;;;;;;5.57;5.07;;;;;;;9.47;100.00;102312.16;5073955;28;20453;-39
2024/03/21 06:43:08;;;;;;;5.33;4.83;;;;;;;9.44;100.00;102324.16;5073345;28;20028;-39
2024/03/21 06:45:35;;;;;;;5.38;4.85;;;;;;;9.42;100.00;102318.13;5073530;28;20068;-40
2024/03/21 06:48:03;;;;;;;5.00;4.38;;;;;;;9.28;100.00;102313.56;5073193;28;20031;-40
2024/03/21 06:50:29;;;;;;;5.45;4.82;;;;;;;9.32;100.00;102325.66;5073247;28;20025;-38
2024/03/21 06:52:57;;;;;;;6.03;4.80;;;;;;;9.29;100.00;102332.25;5073235;28;20025;-39
2024/03/21 06:55:22;;;;;;;5.30;4.80;;;;;;;9.26;100.00;102338.03;5073250;28;20419;-39
2024/03/21 06:57:57;;;;;;;5.63;5.03;;;;;;;9.22;100.00;102342.13;5073148;28;20025;-38
2024/03/21 07:00:27;;;;;;;5.30;4.80;;;;;;;9.25;100.00;102335.50;5073948;28;20024;-39
2024/03/21 07:02:53;;;;;;;5.90;4.70;;;;;;;9.20;100.00;102349.56;5073370;28;20020;-40
2024/03/21 07:05:18;;;;;;;5.93;5.00;;;;;;;9.21;100.00;102355.81;5073433;28;20054;-39
2024/03/21 07:07:44;;;;;;;5.37;4.87;;;;;;;9.12;100.00;102356.91;5073617;28;20376;-39
2024/03/21 07:10:09;;;;;;;7.37;5.43;;;;;;;9.09;100.00;102366.22;5072100;28;20047;-39
2024/03/21 07:12:37;;;;;;;5.28;4.78;;;;;;;9.12;100.00;102370.41;5073142;28;20028;-39
2024/03/21 07:15:03;;;;;;;6.40;5.75;;;;;;;9.07;100.00;102380.91;5073549;28;20036;-39
2024/03/21 07:17:28;;;;;;;;;;;;;;;9.21;100.00;102388.19;5077690;28;20044;-39
2024/03/21 07:19:54;;;;;;;8.00;6.10;;;;;;;9.04;100.00;102392.91;5077098;28;19955;-39
2024/03/21 07:22:20;;;;;;;6.20;5.50;;;;;;;9.03;100.00;102397.47;5077515;28;20111;-39
2024/03/21 07:24:45;;;;;;;6.45;5.30;;;;;;;9.13;100.00;102402.63;5077176;28;20267;-39
2024/03/21 07:27:10;;;;;;;7.07;5.93;;;;;;;9.00;100.00;102395.13;5077405;28;20025;-38
2024/03/21 07:29:36;;;;;;;7.07;5.00;;;;;;;9.09;100.00;102401.31;5076918;28;20255;-39
2024/03/21 07:32:06;;;;;;;7.00;5.00;;;;;;;9.09;100.00;102413.97;5077501;28;20024;-39
2024/03/21 07:34:32;;;;;;;6.35;4.03;;;;;;;9.07;100.00;102424.09;5077529;28;20382;-39
2024/03/21 07:36:57;;;;;;;4.82;3.20;;;;;;;9.06;100.00;102423.25;5077895;28;20024;-40
2024/03/21 07:39:23;;;;;;;3.88;3.13;;;;;;;8.98;100.00;102416.09;5077326;28;20024;-39
2024/03/21 07:41:49;;;;;;;4.47;3.08;;;;;;;9.02;100.00;102416.53;5076714;28;20024;-40
2024/03/21 07:44:14;;;;;;;4.75;3.47;;;;;;;9.05;100.00;102415.34;5076913;28;20024;-38
2024/03/21 07:46:40;;;;;;;5.07;3.00;;;;;;;9.03;100.00;102427.16;5076844;28;20029;-39
2024/03/21 07:49:07;;;;;;;;;;;;;;;9.17;100.00;102420.09;5076953;28;20024;-39
2024/03/21 07:51:32;;;;;;;5.38;3.60;;;;;;;9.09;100.00;102425.59;5077055;28;19916;-40
2024/03/21 07:53:58;;;;;;;4.35;2.97;;;;;;;9.13;100.00;102428.78;5076506;28;20031;-39
2024/03/21 07:56:24;;;;;;;8.20;3.70;;;;;;;9.14;100.00;102438.53;5077097;28;20068;-39
2024/03/21 07:58:50;;;;;;;5.20;2.97;;;;;;;9.15;100.00;102430.25;5076664;28;20364;-39
2024/03/21 08:01:15;;;;;;;8.77;4.13;;;;;;;9.17;100.00;102440.84;5076835;28;20059;-39
2024/03/21 08:03:40;;;;;;;4.37;2.47;;;;;;;9.25;100.00;102432.69;5076849;28;20099;-39
2024/03/21 08:06:06;;;;;;;5.73;2.77;;;;;;;9.35;100.00;102440.53;5075948;28;20270;-39
2024/03/21 08:08:31;;;;;;;4.60;2.70;;;;;;;9.40;100.00;102444.34;5076503;28;20108;-39
2024/03/21 08:10:57;;;;;;;5.87;2.73;;;;;;;9.36;100.00;102432.22;5075489;28;20062;-38
2024/03/21 08:13:22;;;;;;;3.30;2.25;;;;;;;9.46;100.00;102456.28;5075899;28;20579;-39
2024/03/21 08:15:48;;;;;;;5.30;2.83;;;;;;;9.48;100.00;102452.38;5075829;28;20028;-39
2024/03/21 08:18:13;;;;;;;5.22;2.45;;;;;;;9.45;100.00;102435.69;5076080;28;20263;-39
2024/03/21 08:20:38;;;;;;;6.63;2.90;;;;;;;9.51;100.00;102465.50;5076123;28;20028;-39
2024/03/21 08:23:04;;;;;;;4.33;2.17;;;;;;;9.61;100.00;102461.69;5076012;28;20074;-39
2024/03/21 08:25:29;;;;;;;3.27;2.10;;;;;;;9.67;100.00;102461.81;5075961;28;20043;-39
2024/03/21 08:27:54;;;;;;;8.63;5.43;;;;;;;9.68;100.00;102468.88;5075157;28;20056;-39
2024/03/21 08:30:20;;;;;;;11.67;6.80;;;;;;;9.54;100.00;102459.72;5076379;28;20071;-39
2024/03/21 08:32:45;;;;;;;8.40;4.03;;;;;;;9.61;100.00;102469.78;5076326;28;20153;-39
2024/03/21 08:35:11;;;;;;;7.13;3.77;;;;;;;9.64;100.00;102472.97;5076059;28;20440;-39
2024/03/21 08:37:36;;;;;;;5.72;2.60;;;;;;;9.59;100.00;102477.25;5075458;28;20393;-39
2024/03/21 08:40:02;;;;;;;4.37;2.10;;;;;;;9.57;100.00;102469.34;5075773;28;20033;-39
2024/03/21 08:42:28;;;;;;;4.30;1.95;;;;;;;9.54;100.00;102470.53;5075672;28;20063;-39
2024/03/21 08:44:55;;;;;;;4.63;1.77;;;;;;;9.57;100.00;102463.09;5076138;28;20508;-40
2024/03/21 08:47:22;;;;;;;4.53;1.50;;;;;;;9.68;100.00;102476.16;5075500;28;20064;-40
2024/03/21 08:49:47;;;;;;;4.63;1.63;;;;;;;9.66;100.00;102476.34;5076278;28;20027;-39
2024/03/21 08:52:12;;;;;;;2.85;1.40;;;;;;;9.66;100.00;102470.06;5075376;28;20024;-39
2024/03/21 08:54:38;;;;;;;7.57;1.55;;;;;;;9.69;100.00;102483.22;5075272;28;20131;-39
2024/03/21 08:57:03;;;;;;;3.20;1.10;;;;;;;9.85;100.00;102487.59;5075080;28;20032;-39
2024/03/21 08:59:29;;;;;;;4.73;1.40;;;;;;;9.88;100.00;102495.34;5075821;28;20258;-39
2024/03/21 09:01:54;;;;;;;3.83;1.30;;;;;;;9.95;100.00;102502.50;5075988;28;20730;-39
2024/03/21 09:04:20;;;;;;;5.97;1.67;;;;;;;10.03;100.00;102499.72;5075857;28;20036;-39
2024/03/21 09:06:45;;;;;;;4.03;1.52;;;;;;;9.89;100.00;102489.75;5075142;28;20303;-39
2024/03/21 09:09:11;;;;;;;5.75;1.40;;;;;;;9.88;100.00;102482.66;5075108;28;20086;-39
2024/03/21 09:11:36;;;;;;;5.20;1.47;;;;;;;10.09;100.00;102494.59;5075120;28;20029;-39
2024/03/21 09:14:02;;;;;;;3.95;1.85;;;;;;;10.06;100.00;102480.44;5075216;28;20773;-39
2024/03/21 09:16:28;;;;;;;3.42;1.55;;;;;;;10.25;100.00;102487.16;5074674;28;20415;-39
2024/03/21 09:18:53;;;;;;;3.63;1.50;;;;;;;10.31;100.00;102489.09;5075184;28;20028;-39
2024/03/21 09:21:18;;;;;;;3.88;1.70;;;;;;;10.35;100.00;102492.28;5075095;28;20094;-39
2024/03/21 09:23:48;;;;;;;6.55;1.75;;;;;;;10.40;100.00;102487.13;5075019;28;20036;-39
2024/03/21 09:26:13;;;;;;;4.65;1.70;;;;;;;10.40;100.00;102492.53;5074704;28;20036;-39
2024/03/21 09:28:39;;;;;;;6.03;2.22;;;;;;;10.44;100.00;102492.97;5074980;28;20032;-39
2024/03/21 09:31:05;;;;;;;4.82;1.63;;;;;;;10.40;100.00;102489.84;5074870;28;20108;-39
2024/03/21 09:33:32;;;;;;;6.25;1.88;;;;;;;10.43;100.00;102484.03;5074845;28;20536;-39
2024/03/21 09:36:03;;;;;;;3.85;1.50;;;;;;;10.40;100.00;102481.72;5074488;28;20037;-39
2024/03/21 09:38:28;;;;;;;3.85;1.30;;;;;;;10.47;100.00;102485.31;5073669;28;20035;-40
2024/03/21 09:40:56;;;;;;;4.28;1.48;;;;;;;10.50;100.00;102486.81;5075036;28;20033;-40
2024/03/21 09:43:22;;;;;;;2.78;1.20;;;;;;;10.55;100.00;102501.44;5074639;28;20032;-39
2024/03/21 09:45:51;;;;;;;4.15;1.58;;;;;;;10.49;100.00;102512.16;5074901;28;20074;-39
2024/03/21 09:48:17;;;;;;;3.22;1.35;;;;;;;10.51;100.00;102513.66;5074481;28;20032;-39
2024/03/21 09:50:42;;;;;;;2.45;1.30;;;;;;;10.62;100.00;102516.91;5074272;28;20423;-39
2024/03/21 09:53:16;;;;;;;4.20;1.40;;;;;;;10.62;100.00;102512.34;5074232;28;20032;-39
2024/03/21 09:55:44;;;;;;;4.40;1.40;;;;;;;10.75;100.00;102515.19;5074613;28;20045;-39
2024/03/21 09:58:14;;;;;;;3.72;1.40;;;;;;;10.79;100.00;102526.50;5074317;28;20039;-39
2024/03/21 10:00:41;;;;;;;2.95;1.35;;;;;;;10.77;100.00;102531.22;5074309;28;20539;-40
2024/03/21 10:03:15;;;;;;;5.65;1.70;;;;;;;10.78;100.00;102525.66;5073970;28;20067;-40
2024/03/21 10:05:47;;;;;;;3.72;1.40;;;;;;;10.90;100.00;102538.66;5074513;28;20032;-40
2024/03/21 10:08:14;;;;;;;3.45;1.70;;;;;;;10.79;100.00;102537.31;5073619;28;20021;-39
2024/03/21 10:10:40;;;;;;;4.97;1.80;;;;;;;10.71;100.00;102534.72;5074207;28;20484;-39
2024/03/21 10:13:07;;;;;;;4.88;1.75;;;;;;;10.77;100.00;102545.59;5073471;28;20533;-39
2024/03/21 10:15:32;;;;;;;4.45;2.00;;;;;;;10.86;100.00;102554.44;5073430;28;20037;-39
2024/03/21 10:18:01;;;;;;;3.05;2.13;;;;;;;10.90;100.00;102542.22;5073437;28;20031;-39
2024/03/21 10:20:27;;;;;;;4.30;1.80;;;;;;;10.98;100.00;102561.06;5074321;28;20108;-39
2024/03/21 10:22:53;;;;;;;7.28;1.92;;;;;;;10.91;100.00;102554.72;5073372;28;20020;-39
2024/03/21 10:25:19;;;;;;;4.45;1.80;;;;;;;11.02;100.00;102559.59;5074470;28;20067;-40
2024/03/21 10:27:48;;;;;;;4.47;2.05;;;;;;;11.03;100.00;102552.34;5073311;28;20060;-40
2024/03/21 10:30:18;;;;;;;4.30;2.03;;;;;;;11.01;100.00;102548.97;5073608;28;20048;-40
2024/03/21 10:32:44;;;;;;;4.22;1.77;;;;;;;11.17;100.00;102562.25;5073550;28;20035;-39
2024/03/21 10:35:17;;;;;;;3.88;2.00;;;;;;;11.11;100.00;102563.03;5073702;28;20036;-39
2024/03/21 10:37:44;;;;;;;4.95;2.08;;;;;;;11.11;100.00;102581.16;5073729;28;20060;-39
2024/03/21 10:40:13;;;;;;;5.75;2.05;;;;;;;10.97;100.00;102572.03;5074045;28;20334;-40
2024/03/21 10:42:44;;;;;;;4.38;2.28;;;;;;;10.93;100.00;102579.72;5073439;28;20117;-40
2024/03/21 10:45:14;;;;;;;5.55;2.30;;;;;;;10.97;100.00;102583.72;5073717;28;20032;-39
2024/03/21 10:47:50;;;;;;;4.13;2.10;;;;;;;10.93;100.00;102585.16;5073339;28;20039;-39
2024/03/21 10:50:21;;;;;;;5.57;2.42;;;;;;;10.85;100.00;102593.38;5073222;28;20036;-39
2024/03/21 10:52:51;;;;;;;4.10;1.60;;;;;;;10.75;100.00;102592.84;5073340;28;20017;-40
2024/03/21 10:55:18;;;;;;;3.97;1.80;;;;;;;10.78;100.00;102593.31;5073889;28;20052;-39
2024/03/21 10:57:50;;;;;;;2.92;1.38;;;;;;;10.81;100.00;102590.19;5073879;28;20033;-40
2024/03/21 11:00:19;;;;;;;4.68;1.27;;;;;;;10.76;100.00;102591.78;5073696;28;20059;-39
2024/03/21 11:02:52;;;;;;;5.25;1.38;;;;;;;10.76;100.00;102589.09;5073293;28;20040;-39
2024/03/21 11:05:22;;;;;;;5.47;1.42;;;;;;;10.80;100.00;102593.09;5074057;28;20024;-40
2024/03/21 11:07:47;;;;;;;3.22;1.35;;;;;;;10.86;100.00;102605.88;5073519;28;20111;-40
2024/03/21 11:10:17;;;;;;;7.18;1.60;;;;;;;10.92;100.00;102602.38;5072540;28;20541;-40
2024/03/21 11:12:44;;;;;;;2.42;1.10;;;;;;;10.91;100.00;102598.00;5073456;28;20024;-39